Terminal Aerodrome Forecast
Issued by NWS

Home | Current Version | Previous Version | Text Only | Print | Product List | Glossary On
Versions: 1 2 3 4 5 6 7 8 9 10 11 12 13 14 15 16 17 18
000
FTUS41 KBOX 120540
TAFBED
TAF
KBED 120540Z 1206/1306 00000KT P6SM SCT045 OVC110
     FM120900 VRB03KT P6SM OVC030
     FM121300 12006KT 4SM -FZRAPL OVC020
     FM121500 13007KT 3SM -RA OVC020
     FM121900 13008KT 1 1/2SM -RA OVC008
     FM122200 20006KT P6SM OVC025
     FM130100 22005KT P6SM BKN020=

USA.gov is the U.S. government's official web portal to all federal, state and local government web resources and services.